Aerbrava English version Versión de Aerbrava en Español Versió en Català d'Aerbrava
curve curve
Saturday, 14 de December de 2019
05:02 UTC
Sunrise: 07:12
Sunset: 16:14

AERONAUTICAL WEATHER

WEATHER INFORMATION

This section shows the meteorological information that is used in the practice of students in the pilot school at our center during training, so it may not be current and should be used at your own risk. AERBRAVA is not responsible for its use.

ACTUAL WEATHER

Servei Meteorològic de Catalunya sat24.com
LEGE 140430Z 30004KT 240V350 9999 FEW030 12/08 Q1007
LEGE 140400Z 34007KT 250V060 9999 FEW030 12/09 Q1007
LEGE 140330Z 00000KT 9999 FEW030 07/07 Q1007
LEGE 140300Z 27002KT 9999 FEW030 08/07 Q1007
LEGE 140230Z 35001KT 9999 FEW030 07/07 Q1007
LEGE 140200Z 32001KT 9999 FEW030 07/06 Q1007
LEGE 140130Z VRB01KT 8000 FEW030 08/07 Q1006
TAF LEGE 132300Z 1400/1424 VRB04KT 9999 FEW015 TX19/1413Z TN06/1406Z   PROB40   TEMPO 1400/1410 30008KT   PROB30   TEMPO 1400/1407 3000 BR
National Weather service
logo About us | Site map | Privacy | Contact | © 2019 AERBRAVA, SCP